createdAt,value
2017-12-12T00:00:39.476Z,795.51
2017-12-12T00:01:39.484Z,795.54
2017-12-12T00:02:39.483Z,795.53
2017-12-12T00:03:39.496Z,795.56
2017-12-12T00:04:39.495Z,795.64
2017-12-12T00:05:39.494Z,795.58
2017-12-12T00:06:39.497Z,795.58
2017-12-12T00:07:39.506Z,795.59
2017-12-12T00:08:39.506Z,795.62
2017-12-12T00:09:39.513Z,795.64
2017-12-12T00:10:39.517Z,795.65
2017-12-12T00:11:39.515Z,795.71
2017-12-12T00:12:39.519Z,795.73
2017-12-12T00:13:39.528Z,795.83
2017-12-12T00:14:39.527Z,795.79
2017-12-12T00:15:39.528Z,795.81
2017-12-12T00:16:39.538Z,795.75
2017-12-12T00:17:39.536Z,795.78
2017-12-12T00:18:39.551Z,795.76
2017-12-12T00:19:39.549Z,795.76
2017-12-12T00:20:39.553Z,795.82
2017-12-12T00:21:39.552Z,795.77
2017-12-12T00:22:39.555Z,795.66
2017-12-12T00:23:39.560Z,795.90
2017-12-12T00:24:39.563Z,795.85
2017-12-12T00:25:39.567Z,795.83
2017-12-12T00:26:39.576Z,795.74
2017-12-12T00:27:39.570Z,795.72
2017-12-12T00:28:39.576Z,795.73
2017-12-12T00:29:39.585Z,795.69
2017-12-12T00:30:39.583Z,795.74
2017-12-12T00:31:39.591Z,795.76
2017-12-12T00:32:39.595Z,795.70
2017-12-12T00:33:39.599Z,795.71
2017-12-12T00:34:39.597Z,795.74
2017-12-12T00:35:39.598Z,795.75
2017-12-12T00:36:39.602Z,795.75
2017-12-12T00:37:39.612Z,795.87
2017-12-12T00:38:39.609Z,795.90
2017-12-12T00:39:39.618Z,795.94
2017-12-12T00:40:39.621Z,795.95
2017-12-12T00:41:39.622Z,795.95
2017-12-12T00:42:39.630Z,795.98
2017-12-12T00:43:39.626Z,796.00
2017-12-12T00:44:39.633Z,796.04
2017-12-12T00:45:39.638Z,796.05
2017-12-12T00:46:39.637Z,796.03
2017-12-12T00:47:39.638Z,796.03
2017-12-12T00:48:39.648Z,796.07
2017-12-12T00:49:39.652Z,796.09
2017-12-12T00:50:39.656Z,796.11
2017-12-12T00:51:39.652Z,796.11
2017-12-12T00:52:39.663Z,796.09
2017-12-12T00:53:39.661Z,796.11
2017-12-12T00:54:39.674Z,796.14
2017-12-12T00:55:39.669Z,796.20
2017-12-12T00:56:39.671Z,796.19
2017-12-12T00:57:39.677Z,796.19
2017-12-12T00:58:39.686Z,796.18
2017-12-12T00:59:39.691Z,796.23
2017-12-12T01:00:39.693Z,796.25
2017-12-12T01:01:39.698Z,796.28
2017-12-12T01:02:39.696Z,796.34
2017-12-12T01:03:39.706Z,796.33
2017-12-12T01:04:39.706Z,796.40
2017-12-12T01:05:39.707Z,796.38
2017-12-12T01:06:39.714Z,796.39
2017-12-12T01:07:39.716Z,796.38
2017-12-12T01:08:39.724Z,796.42
2017-12-12T01:09:39.730Z,796.49
2017-12-12T01:10:39.732Z,796.47
2017-12-12T01:11:39.730Z,796.53
2017-12-12T01:12:39.739Z,796.51
2017-12-12T01:13:39.739Z,796.50
2017-12-12T01:14:39.742Z,796.44
2017-12-12T01:15:39.746Z,796.46
2017-12-12T01:16:39.755Z,796.45
2017-12-12T01:17:39.759Z,796.52
2017-12-12T01:18:39.765Z,796.56
2017-12-12T01:19:39.767Z,796.61
2017-12-12T01:20:39.767Z,796.52
2017-12-12T01:21:39.774Z,796.59
2017-12-12T01:22:39.779Z,796.57
2017-12-12T01:23:39.777Z,796.57
2017-12-12T01:24:39.786Z,796.64
2017-12-12T01:25:39.798Z,796.66
2017-12-12T01:26:39.798Z,796.68
2017-12-12T01:27:39.800Z,796.68
2017-12-12T01:28:39.809Z,796.73
2017-12-12T01:29:39.806Z,796.79
2017-12-12T01:30:39.806Z,796.82
2017-12-12T01:31:39.809Z,796.82
2017-12-12T01:32:39.815Z,796.81
2017-12-12T01:33:39.818Z,796.84
2017-12-12T01:34:39.823Z,796.85
2017-12-12T01:35:39.825Z,796.85
2017-12-12T01:36:39.836Z,796.90
2017-12-12T01:37:39.837Z,796.90
2017-12-12T01:38:39.838Z,796.88
2017-12-12T01:39:39.843Z,796.96
2017-12-12T01:40:39.845Z,796.96
2017-12-12T01:41:39.849Z,797.01
2017-12-12T01:42:39.854Z,797.01
2017-12-12T01:43:39.857Z,797.05
2017-12-12T01:44:39.862Z,797.06
2017-12-12T01:45:39.872Z,797.08
2017-12-12T01:46:39.871Z,797.08
2017-12-12T01:47:39.880Z,797.12
2017-12-12T01:48:39.877Z,797.16
2017-12-12T01:49:39.889Z,797.16
2017-12-12T01:50:39.886Z,797.21
2017-12-12T01:51:39.898Z,797.25
2017-12-12T01:52:39.893Z,797.24
2017-12-12T01:53:39.898Z,797.27
2017-12-12T01:54:39.908Z,797.28
2017-12-12T01:55:39.911Z,797.24
2017-12-12T01:56:39.917Z,797.28
2017-12-12T01:57:39.913Z,797.28
2017-12-12T01:58:39.925Z,797.28
2017-12-12T01:59:39.922Z,797.27
2017-12-12T02:00:39.927Z,797.29
2017-12-12T02:01:39.935Z,797.32
2017-12-12T02:02:39.938Z,797.35
2017-12-12T02:03:39.936Z,797.38
2017-12-12T02:04:39.946Z,797.42
2017-12-12T02:05:39.944Z,797.40
2017-12-12T02:06:39.954Z,797.40
2017-12-12T02:07:39.956Z,797.40
2017-12-12T02:08:39.959Z,797.38
2017-12-12T02:09:39.962Z,797.39
2017-12-12T02:10:39.967Z,797.37
2017-12-12T02:11:39.974Z,797.34
2017-12-12T02:12:39.980Z,797.36
2017-12-12T02:13:39.983Z,797.38
2017-12-12T02:14:39.987Z,797.44
2017-12-12T02:15:39.984Z,797.47
2017-12-12T02:16:39.989Z,797.47
2017-12-12T02:17:39.991Z,797.46
2017-12-12T02:18:39.995Z,797.48
2017-12-12T02:19:40.006Z,797.51
2017-12-12T02:20:40.004Z,797.50
2017-12-12T02:21:40.013Z,797.49
2017-12-12T02:22:40.019Z,797.52
2017-12-12T02:23:40.015Z,797.53
2017-12-12T02:24:40.016Z,797.54
2017-12-12T02:25:40.021Z,797.56
2017-12-12T02:26:40.033Z,797.55
2017-12-12T02:27:40.034Z,797.50
2017-12-12T02:28:40.038Z,797.54
2017-12-12T02:29:40.043Z,797.58
2017-12-12T02:30:40.048Z,797.60
2017-12-12T02:31:40.044Z,797.66
2017-12-12T02:32:40.059Z,797.68
2017-12-12T02:33:40.050Z,797.69
2017-12-12T02:34:40.061Z,797.72
2017-12-12T02:35:40.065Z,797.67
2017-12-12T02:36:40.068Z,797.63
2017-12-12T02:37:40.069Z,797.63
2017-12-12T02:38:40.075Z,797.63
2017-12-12T02:39:40.073Z,797.59
2017-12-12T02:40:40.089Z,797.64
2017-12-12T02:41:40.090Z,797.66
2017-12-12T02:42:40.091Z,797.68
2017-12-12T02:43:40.097Z,797.66
2017-12-12T02:44:40.100Z,797.68
2017-12-12T02:45:40.097Z,797.69
2017-12-12T02:46:40.102Z,797.70
2017-12-12T02:47:40.108Z,797.72
2017-12-12T02:48:40.117Z,797.77
2017-12-12T02:49:40.117Z,797.78
2017-12-12T02:50:40.114Z,797.80
2017-12-12T02:51:40.123Z,797.86
2017-12-12T02:52:40.127Z,797.89
2017-12-12T02:53:40.142Z,797.91
2017-12-12T02:54:40.130Z,797.94
2017-12-12T02:55:40.132Z,797.88
2017-12-12T02:56:40.144Z,797.94
2017-12-12T02:57:40.147Z,797.95
2017-12-12T02:58:40.150Z,797.99
2017-12-12T02:59:40.147Z,798.04
2017-12-12T03:00:40.151Z,798.03
2017-12-12T03:01:40.158Z,798.00
2017-12-12T03:02:40.165Z,798.06
2017-12-12T03:03:40.167Z,798.06
2017-12-12T03:04:40.171Z,798.06
2017-12-12T03:05:40.175Z,798.08
2017-12-12T03:06:40.176Z,798.09
2017-12-12T03:07:40.181Z,798.10
2017-12-12T03:08:40.179Z,798.19
2017-12-12T03:09:40.183Z,798.19
2017-12-12T03:10:40.194Z,798.20
2017-12-12T03:11:40.197Z,798.15
2017-12-12T03:12:40.197Z,798.17
2017-12-12T03:13:40.203Z,798.20
2017-12-12T03:14:40.207Z,798.19
2017-12-12T03:15:40.208Z,798.17
2017-12-12T03:16:40.214Z,798.21
2017-12-12T03:17:40.212Z,798.16
2017-12-12T03:18:40.221Z,798.16
2017-12-12T03:19:40.219Z,798.20
2017-12-12T03:20:40.221Z,798.21
2017-12-12T03:21:40.228Z,798.23
2017-12-12T03:22:40.230Z,798.28
2017-12-12T03:23:40.233Z,798.37
2017-12-12T03:24:40.242Z,798.36
2017-12-12T03:25:40.246Z,798.29
2017-12-12T03:26:40.244Z,798.36
2017-12-12T03:27:40.255Z,798.38
2017-12-12T03:28:40.251Z,798.36
2017-12-12T03:29:40.253Z,798.34
2017-12-12T03:30:40.260Z,798.36
2017-12-12T03:31:40.261Z,798.37
2017-12-12T03:32:40.270Z,798.31
2017-12-12T03:33:40.271Z,798.35
2017-12-12T03:34:40.284Z,798.35
2017-12-12T03:35:40.275Z,798.35
2017-12-12T03:36:40.283Z,798.41
2017-12-12T03:37:40.284Z,798.45
2017-12-12T03:38:40.294Z,798.46
2017-12-12T03:39:40.289Z,798.52
2017-12-12T03:40:40.301Z,798.54
2017-12-12T03:41:40.296Z,798.57
2017-12-12T03:42:40.308Z,798.59
2017-12-12T03:43:40.305Z,798.59
2017-12-12T03:44:40.320Z,798.59
2017-12-12T03:45:40.318Z,798.63
2017-12-12T03:46:40.321Z,798.59
2017-12-12T03:47:40.325Z,798.63
2017-12-12T03:48:40.331Z,798.61
2017-12-12T03:49:40.328Z,798.66
2017-12-12T03:50:40.333Z,798.67
2017-12-12T03:51:40.336Z,798.73
2017-12-12T03:52:40.345Z,798.69
2017-12-12T03:53:40.343Z,798.80
2017-12-12T03:54:40.350Z,798.80
2017-12-12T03:55:40.351Z,798.85
2017-12-12T03:56:40.352Z,798.88
2017-12-12T03:57:40.359Z,798.88
2017-12-12T03:58:40.361Z,798.93
2017-12-12T03:59:40.370Z,798.99
2017-12-12T04:00:40.370Z,798.99
2017-12-12T04:01:40.374Z,799.05
2017-12-12T04:02:40.383Z,799.08
2017-12-12T04:03:40.385Z,799.10
2017-12-12T04:04:40.390Z,799.08
2017-12-12T04:05:40.389Z,799.08
2017-12-12T04:06:40.398Z,799.08
2017-12-12T04:07:40.400Z,799.07
2017-12-12T04:08:40.412Z,799.07
2017-12-12T04:09:40.406Z,799.09
2017-12-12T04:10:40.414Z,799.15
2017-12-12T04:11:40.417Z,799.14
2017-12-12T04:12:40.429Z,799.17
2017-12-12T04:13:40.424Z,799.20
2017-12-12T04:14:40.423Z,799.20
2017-12-12T04:15:40.424Z,799.22
2017-12-12T04:16:40.429Z,799.27
2017-12-12T04:17:40.440Z,799.33
2017-12-12T04:18:40.437Z,799.33
2017-12-12T04:19:40.447Z,799.37
2017-12-12T04:20:40.451Z,799.47
2017-12-12T04:21:40.453Z,799.44
2017-12-12T04:22:40.454Z,799.38
2017-12-12T04:23:40.455Z,799.35
2017-12-12T04:24:40.459Z,799.39
2017-12-12T04:25:40.464Z,799.40
2017-12-12T04:26:40.466Z,799.41
2017-12-12T04:27:40.476Z,799.39
2017-12-12T04:28:40.476Z,799.40
2017-12-12T04:29:40.477Z,799.35
2017-12-12T04:30:40.485Z,799.45
2017-12-12T04:31:40.489Z,799.52
2017-12-12T04:32:40.486Z,799.56
2017-12-12T04:33:40.490Z,799.63
2017-12-12T04:34:40.497Z,799.59
2017-12-12T04:35:40.497Z,799.60
2017-12-12T04:36:40.507Z,799.55
2017-12-12T04:37:40.504Z,799.57
2017-12-12T04:38:40.509Z,799.58
2017-12-12T04:39:40.511Z,799.56
2017-12-12T04:40:40.522Z,799.61
2017-12-12T04:41:40.525Z,799.62
2017-12-12T04:42:40.529Z,799.72
2017-12-12T04:43:40.532Z,799.70
2017-12-12T04:44:40.528Z,799.70
2017-12-12T04:45:40.535Z,799.76
2017-12-12T04:46:40.542Z,799.81
2017-12-12T04:47:40.540Z,799.86
2017-12-12T04:48:40.554Z,799.86
2017-12-12T04:49:40.549Z,799.90
2017-12-12T04:50:40.564Z,799.95
2017-12-12T04:51:40.562Z,799.96
2017-12-12T04:52:40.563Z,799.99
2017-12-12T04:53:40.568Z,800.02
2017-12-12T04:54:40.566Z,800.01
2017-12-12T04:55:40.572Z,800.03
2017-12-12T04:56:40.572Z,800.02
2017-12-12T04:57:40.577Z,799.99
2017-12-12T04:58:40.580Z,800.04
2017-12-12T04:59:40.582Z,800.02
2017-12-12T05:00:40.593Z,800.10
2017-12-12T05:01:40.590Z,800.12
2017-12-12T05:02:40.600Z,800.12
2017-12-12T05:03:40.600Z,800.17
2017-12-12T05:04:40.600Z,800.25
2017-12-12T05:05:40.618Z,800.30
2017-12-12T05:06:40.613Z,800.30
2017-12-12T05:07:40.610Z,800.36
2017-12-12T05:08:40.614Z,800.38
2017-12-12T05:09:40.624Z,800.35
2017-12-12T05:10:40.627Z,800.39
2017-12-12T05:11:40.625Z,800.37
2017-12-12T05:12:40.636Z,800.39
2017-12-12T05:13:40.632Z,800.41
2017-12-12T05:14:40.637Z,800.46
2017-12-12T05:15:40.647Z,800.49
2017-12-12T05:16:40.648Z,800.51
2017-12-12T05:17:40.645Z,800.46
2017-12-12T05:18:40.657Z,800.47
2017-12-12T05:19:40.659Z,800.40
2017-12-12T05:20:40.656Z,800.43
2017-12-12T05:21:40.664Z,800.45
2017-12-12T05:22:40.665Z,800.43
2017-12-12T05:23:40.674Z,800.48
2017-12-12T05:24:40.679Z,800.49
2017-12-12T05:25:40.676Z,800.53
2017-12-12T05:26:40.683Z,800.51
2017-12-12T05:27:40.689Z,800.56
2017-12-12T05:28:40.696Z,800.56
2017-12-12T05:29:40.694Z,800.55
2017-12-12T05:30:40.700Z,800.61
2017-12-12T05:31:40.699Z,800.56
2017-12-12T05:32:40.702Z,800.58
2017-12-12T05:33:40.712Z,800.66
2017-12-12T05:34:40.709Z,800.62
2017-12-12T05:35:40.715Z,800.62
2017-12-12T05:36:40.723Z,800.63
2017-12-12T05:37:40.721Z,800.65
2017-12-12T05:38:40.729Z,800.66
2017-12-12T05:39:40.731Z,800.62
2017-12-12T05:40:40.737Z,800.70
2017-12-12T05:41:40.741Z,800.71
2017-12-12T05:42:40.746Z,800.70
2017-12-12T05:43:40.746Z,800.76
2017-12-12T05:44:40.746Z,800.80
2017-12-12T05:45:40.751Z,800.79
2017-12-12T05:46:40.762Z,800.79
2017-12-12T05:47:40.759Z,800.77
2017-12-12T05:48:40.771Z,800.71
2017-12-12T05:49:40.774Z,800.73
2017-12-12T05:50:40.775Z,800.78
2017-12-12T05:51:40.781Z,800.75
2017-12-12T05:52:40.780Z,800.75
2017-12-12T05:53:40.784Z,800.83
2017-12-12T05:54:40.789Z,800.76
2017-12-12T05:55:40.826Z,800.80
2017-12-12T05:56:40.793Z,800.84
2017-12-12T05:57:40.814Z,800.87
2017-12-12T05:58:40.799Z,800.87
2017-12-12T05:59:40.803Z,800.87
2017-12-12T06:00:40.805Z,800.89
2017-12-12T06:01:40.816Z,800.91
2017-12-12T06:02:40.821Z,800.92
2017-12-12T06:03:40.817Z,800.87
2017-12-12T06:04:40.841Z,800.89
2017-12-12T06:05:40.876Z,800.93
2017-12-12T06:06:40.836Z,800.92
2017-12-12T06:07:40.836Z,800.90
2017-12-12T06:08:40.843Z,800.93
2017-12-12T06:09:40.840Z,800.97
2017-12-12T06:10:40.852Z,801.03
2017-12-12T06:11:40.849Z,801.02
2017-12-12T06:12:40.857Z,801.07
2017-12-12T06:13:40.862Z,801.08
2017-12-12T06:14:40.866Z,801.10
2017-12-12T06:15:40.862Z,801.13
2017-12-12T06:16:40.872Z,801.18
2017-12-12T06:17:40.871Z,801.17
2017-12-12T06:18:40.874Z,801.24
2017-12-12T06:19:40.882Z,801.24
2017-12-12T06:20:40.889Z,801.26
2017-12-12T06:21:40.891Z,801.32
2017-12-12T06:22:40.890Z,801.37
2017-12-12T06:23:40.894Z,801.33
2017-12-12T06:24:40.901Z,801.31
2017-12-12T06:25:40.907Z,801.34
2017-12-12T06:26:40.924Z,801.28
2017-12-12T06:27:40.961Z,801.33
2017-12-12T06:28:40.974Z,801.32
2017-12-12T06:29:40.920Z,801.29
2017-12-12T06:30:40.919Z,801.32
2017-12-12T06:31:40.930Z,801.34
2017-12-12T06:32:40.928Z,801.40
2017-12-12T06:33:40.931Z,801.39
2017-12-12T06:34:40.945Z,801.36
2017-12-12T06:35:40.947Z,801.42
2017-12-12T06:36:40.949Z,801.43
2017-12-12T06:37:40.947Z,801.41
2017-12-12T06:38:40.957Z,801.48
2017-12-12T06:39:40.954Z,801.49
2017-12-12T06:40:40.964Z,801.52
2017-12-12T06:41:40.967Z,801.54
2017-12-12T06:42:40.971Z,801.56
2017-12-12T06:43:40.975Z,801.61
2017-12-12T06:44:40.973Z,801.59
2017-12-12T06:45:40.984Z,801.59
2017-12-12T06:46:40.985Z,801.64
2017-12-12T06:47:40.993Z,801.66
2017-12-12T06:48:40.995Z,801.65
2017-12-12T06:49:41.002Z,801.71
2017-12-12T06:50:41.006Z,801.73
2017-12-12T06:51:41.007Z,801.74
2017-12-12T06:52:41.005Z,801.75
2017-12-12T06:53:41.018Z,801.77
2017-12-12T06:54:41.014Z,801.81
2017-12-12T06:55:41.023Z,801.80
2017-12-12T06:56:41.028Z,801.83
2017-12-12T06:57:41.026Z,801.81
2017-12-12T06:58:41.031Z,801.86
2017-12-12T06:59:41.039Z,801.90
2017-12-12T07:00:41.039Z,801.93
2017-12-12T07:01:41.043Z,801.95
2017-12-12T07:02:41.046Z,801.95
2017-12-12T07:03:41.049Z,801.94
2017-12-12T07:04:41.054Z,801.95
2017-12-12T07:05:41.061Z,801.98
2017-12-12T07:06:41.062Z,802.04
2017-12-12T07:07:41.072Z,802.04
2017-12-12T07:08:41.076Z,802.02
2017-12-12T07:09:41.075Z,801.99
2017-12-12T07:10:41.085Z,801.98
2017-12-12T07:11:41.087Z,802.05
2017-12-12T07:12:41.094Z,802.12
2017-12-12T07:13:41.097Z,802.10
2017-12-12T07:14:41.097Z,802.11
2017-12-12T07:15:41.099Z,802.15
2017-12-12T07:16:41.109Z,802.19
2017-12-12T07:17:41.113Z,802.22
2017-12-12T07:18:41.111Z,802.23
2017-12-12T07:19:41.124Z,802.34
2017-12-12T07:20:41.125Z,802.34
2017-12-12T07:21:41.125Z,802.37
2017-12-12T07:22:41.142Z,802.32
2017-12-12T07:23:41.138Z,802.35
2017-12-12T07:24:41.136Z,802.38
2017-12-12T07:25:41.148Z,802.44
2017-12-12T07:26:41.143Z,802.47
2017-12-12T07:27:41.153Z,802.51
2017-12-12T07:28:41.151Z,802.54
2017-12-12T07:29:41.154Z,802.56
2017-12-12T07:30:41.165Z,802.57
2017-12-12T07:31:41.162Z,802.58
2017-12-12T07:32:41.171Z,802.61
2017-12-12T07:33:41.176Z,802.63
2017-12-12T07:34:41.174Z,802.67
2017-12-12T07:35:41.184Z,802.70
2017-12-12T07:36:41.188Z,802.72
2017-12-12T07:37:41.190Z,802.69
2017-12-12T07:38:41.195Z,802.67
2017-12-12T07:39:41.194Z,802.71
2017-12-12T07:40:41.198Z,802.72
2017-12-12T07:41:41.203Z,802.79
2017-12-12T07:42:41.206Z,802.78
2017-12-12T07:43:41.212Z,802.78
2017-12-12T07:44:41.215Z,802.78
2017-12-12T07:45:41.224Z,802.85
2017-12-12T07:46:41.234Z,802.84
2017-12-12T07:47:41.225Z,802.80
2017-12-12T07:48:41.229Z,802.81
2017-12-12T07:49:41.240Z,802.83
2017-12-12T07:50:41.238Z,802.86
2017-12-12T07:51:41.247Z,802.89
2017-12-12T07:52:41.245Z,802.89
2017-12-12T07:53:41.256Z,802.86
2017-12-12T07:54:41.262Z,802.85
2017-12-12T07:55:41.263Z,802.90
2017-12-12T07:56:41.268Z,802.94
2017-12-12T07:57:41.266Z,802.97
2017-12-12T07:58:41.274Z,803.02
2017-12-12T07:59:41.274Z,803.04
2017-12-12T08:00:41.280Z,803.05
2017-12-12T08:01:41.285Z,803.06
2017-12-12T08:02:41.287Z,803.08
2017-12-12T08:03:41.299Z,803.09
2017-12-12T08:04:41.298Z,803.08
2017-12-12T08:05:41.301Z,803.09
2017-12-12T08:06:41.307Z,803.10
2017-12-12T08:07:41.310Z,803.08
2017-12-12T08:08:41.321Z,803.09
2017-12-12T08:09:41.323Z,803.19
2017-12-12T08:10:41.323Z,803.14
2017-12-12T08:11:41.328Z,803.19
2017-12-12T08:12:41.336Z,803.20
2017-12-12T08:13:41.343Z,803.26
2017-12-12T08:14:41.353Z,803.22
2017-12-12T08:15:41.351Z,803.27
2017-12-12T08:16:41.353Z,803.24
2017-12-12T08:17:41.363Z,803.21
2017-12-12T08:18:41.358Z,803.25
2017-12-12T08:19:41.399Z,803.20
2017-12-12T08:20:41.366Z,803.18
2017-12-12T08:21:41.372Z,803.20
2017-12-12T08:22:41.381Z,803.23
2017-12-12T08:23:41.385Z,803.28
2017-12-12T08:24:41.385Z,803.29
2017-12-12T08:25:41.389Z,803.33
2017-12-12T08:26:41.392Z,803.34
2017-12-12T08:27:41.401Z,803.27
2017-12-12T08:28:41.402Z,803.37
2017-12-12T08:29:41.405Z,803.37
2017-12-12T08:30:41.409Z,803.38
2017-12-12T08:31:41.420Z,803.39
2017-12-12T08:32:41.418Z,803.40
2017-12-12T08:33:41.424Z,803.43
2017-12-12T08:34:41.428Z,803.43
2017-12-12T08:35:41.430Z,803.48
2017-12-12T08:36:41.434Z,803.52
2017-12-12T08:37:41.439Z,803.54
2017-12-12T08:38:41.444Z,803.55
2017-12-12T08:39:41.452Z,803.55
2017-12-12T08:40:41.458Z,803.54
2017-12-12T08:41:41.462Z,803.54
2017-12-12T08:42:41.468Z,803.57
2017-12-12T08:43:41.471Z,803.52
2017-12-12T08:44:41.470Z,803.55
2017-12-12T08:45:41.473Z,803.64
2017-12-12T08:46:41.479Z,803.61
2017-12-12T08:47:41.488Z,803.63
2017-12-12T08:48:41.487Z,803.64
2017-12-12T08:49:41.491Z,803.64
2017-12-12T08:50:41.502Z,803.63
2017-12-12T08:51:41.507Z,803.60
2017-12-12T08:52:41.514Z,803.64
2017-12-12T08:53:41.514Z,803.63
2017-12-12T08:54:41.524Z,803.65
2017-12-12T08:55:41.517Z,803.59
2017-12-12T08:56:41.520Z,803.63
2017-12-12T08:57:41.527Z,803.68
2017-12-12T08:58:41.538Z,803.65
2017-12-12T08:59:41.534Z,803.69
2017-12-12T09:00:41.547Z,803.70
2017-12-12T09:01:41.553Z,803.74
2017-12-12T09:02:41.557Z,803.74
2017-12-12T09:03:41.560Z,803.78
2017-12-12T09:04:41.566Z,803.75
2017-12-12T09:05:41.566Z,803.79
2017-12-12T09:06:41.576Z,803.86
2017-12-12T09:07:41.578Z,803.87
2017-12-12T09:08:41.586Z,803.89
2017-12-12T09:09:41.590Z,803.92
2017-12-12T09:10:41.597Z,803.91
2017-12-12T09:11:41.594Z,803.91
2017-12-12T09:12:41.605Z,803.94
2017-12-12T09:13:41.607Z,803.94
2017-12-12T09:14:41.612Z,803.96
2017-12-12T09:15:41.620Z,803.98
2017-12-12T09:16:41.623Z,804.01
2017-12-12T09:17:41.632Z,804.05
2017-12-12T09:18:41.635Z,804.14
2017-12-12T09:19:41.637Z,804.13
2017-12-12T09:20:41.641Z,804.13
2017-12-12T09:21:41.675Z,804.15
2017-12-12T09:22:41.683Z,804.09
2017-12-12T09:23:41.668Z,804.12
2017-12-12T09:24:41.663Z,804.11
2017-12-12T09:25:41.680Z,804.18
2017-12-12T09:26:41.676Z,804.16
2017-12-12T09:27:41.684Z,804.12
2017-12-12T09:28:41.688Z,804.11
2017-12-12T09:29:41.699Z,804.13
2017-12-12T09:30:41.706Z,804.18
2017-12-12T09:31:41.709Z,804.21
2017-12-12T09:32:41.714Z,804.18
2017-12-12T09:33:41.719Z,804.17
2017-12-12T09:34:41.737Z,804.20
2017-12-12T09:35:41.723Z,804.17
2017-12-12T09:36:41.753Z,804.19
2017-12-12T09:37:41.740Z,804.20
2017-12-12T09:38:41.764Z,804.15
2017-12-12T09:39:41.751Z,804.14
2017-12-12T09:40:41.758Z,804.11
2017-12-12T09:41:41.764Z,804.15
2017-12-12T09:42:41.775Z,804.16
2017-12-12T09:43:41.770Z,804.12
2017-12-12T09:44:41.780Z,804.16
2017-12-12T09:45:41.788Z,804.22
2017-12-12T09:46:41.787Z,804.23
2017-12-12T09:47:41.797Z,804.24
2017-12-12T09:48:41.804Z,804.28
2017-12-12T09:49:41.806Z,804.30
2017-12-12T09:50:41.815Z,804.30
2017-12-12T09:51:41.828Z,804.30
2017-12-12T09:52:41.820Z,804.33
2017-12-12T09:53:41.831Z,804.37
2017-12-12T09:54:41.838Z,804.39
2017-12-12T09:55:41.858Z,804.41
2017-12-12T09:56:41.844Z,804.44
2017-12-12T09:57:41.862Z,804.45
2017-12-12T09:58:41.861Z,804.44
2017-12-12T09:59:41.886Z,804.45
2017-12-12T10:00:41.866Z,804.45
2017-12-12T10:01:41.894Z,804.54
2017-12-12T10:02:41.886Z,804.56
2017-12-12T10:03:41.900Z,804.62
2017-12-12T10:04:41.897Z,804.66
2017-12-12T10:05:41.903Z,804.68
2017-12-12T10:06:41.901Z,804.67
2017-12-12T10:07:41.917Z,804.68
2017-12-12T10:08:41.916Z,804.64
2017-12-12T10:09:41.916Z,804.63
2017-12-12T10:10:41.929Z,804.63
2017-12-12T10:11:41.929Z,804.67
2017-12-12T10:12:41.938Z,804.68
2017-12-12T10:13:41.946Z,804.68
2017-12-12T10:14:41.952Z,804.68
2017-12-12T10:15:41.952Z,804.66
2017-12-12T10:16:41.956Z,804.63
2017-12-12T10:17:41.963Z,804.62
2017-12-12T10:18:41.975Z,804.66
2017-12-12T10:19:41.974Z,804.65
2017-12-12T10:20:41.989Z,804.66
2017-12-12T10:21:41.985Z,804.67
2017-12-12T10:22:41.999Z,804.61
2017-12-12T10:23:42.001Z,804.68
2017-12-12T10:24:42.019Z,804.66
2017-12-12T10:25:42.007Z,804.69
2017-12-12T10:26:42.016Z,804.68
2017-12-12T10:27:42.015Z,804.69
2017-12-12T10:28:42.039Z,804.69
2017-12-12T10:29:42.033Z,804.73
2017-12-12T10:30:42.043Z,804.65
2017-12-12T10:31:42.043Z,804.70
2017-12-12T10:32:42.043Z,804.70
2017-12-12T10:33:42.073Z,804.76
2017-12-12T10:34:42.053Z,804.81
2017-12-12T10:35:42.059Z,804.74
2017-12-12T10:36:42.065Z,804.78
2017-12-12T10:37:42.069Z,804.77
2017-12-12T10:38:42.080Z,804.76
2017-12-12T10:39:42.086Z,804.82
2017-12-12T10:40:42.084Z,804.85
2017-12-12T10:41:42.094Z,804.91
2017-12-12T10:42:42.094Z,804.97
2017-12-12T10:43:42.117Z,804.92
2017-12-12T10:44:42.107Z,804.96
2017-12-12T10:45:42.108Z,804.94
2017-12-12T10:46:42.113Z,804.94
2017-12-12T10:47:42.141Z,804.90
2017-12-12T10:48:42.125Z,804.96
2017-12-12T10:49:42.139Z,804.94
2017-12-12T10:50:42.132Z,804.91
2017-12-12T10:51:42.144Z,804.94
2017-12-12T10:52:42.146Z,804.95
2017-12-12T10:53:42.167Z,804.97
2017-12-12T10:54:42.150Z,805.00
2017-12-12T10:55:42.174Z,805.01
2017-12-12T10:56:42.159Z,805.03
2017-12-12T10:57:42.182Z,805.07
2017-12-12T10:58:42.174Z,805.10
2017-12-12T10:59:42.189Z,805.06
2017-12-12T11:00:42.179Z,805.08
2017-12-12T11:01:42.194Z,805.09
2017-12-12T11:02:42.193Z,805.13
2017-12-12T11:03:42.203Z,805.08
2017-12-12T11:04:42.197Z,805.15
2017-12-12T11:05:42.206Z,805.14
2017-12-12T11:06:42.210Z,805.08
2017-12-12T11:07:42.213Z,805.15
2017-12-12T11:08:42.214Z,805.14
2017-12-12T11:09:42.223Z,805.16
2017-12-12T11:10:42.228Z,805.16
2017-12-12T11:11:42.232Z,805.22
2017-12-12T11:12:42.230Z,805.22
2017-12-12T11:13:42.241Z,805.22
2017-12-12T11:14:42.241Z,805.30
2017-12-12T11:15:42.251Z,805.29
2017-12-12T11:16:42.254Z,805.27
2017-12-12T11:17:42.259Z,805.26
2017-12-12T11:18:42.258Z,805.22
2017-12-12T11:19:42.261Z,805.29
2017-12-12T11:20:42.269Z,805.26
2017-12-12T11:21:42.281Z,805.27
2017-12-12T11:22:42.278Z,805.21
2017-12-12T11:23:42.283Z,805.23
2017-12-12T11:24:42.285Z,805.23
2017-12-12T11:25:42.293Z,805.23
2017-12-12T11:26:42.301Z,805.25
2017-12-12T11:27:42.297Z,805.32
2017-12-12T11:28:42.301Z,805.32
2017-12-12T11:29:42.311Z,805.37
2017-12-12T11:30:42.310Z,805.31
2017-12-12T11:31:42.312Z,805.28
2017-12-12T11:32:42.323Z,805.27
2017-12-12T11:33:42.329Z,805.31
2017-12-12T11:34:42.327Z,805.28
2017-12-12T11:35:42.337Z,805.36
2017-12-12T11:36:42.344Z,805.22
2017-12-12T11:37:42.391Z,805.17
2017-12-12T11:38:42.350Z,805.16
2017-12-12T11:39:42.357Z,805.17
2017-12-12T11:40:42.362Z,805.23
2017-12-12T11:41:42.364Z,805.25
2017-12-12T11:42:42.367Z,805.21
2017-12-12T11:43:42.365Z,805.20
2017-12-12T11:44:42.382Z,805.22
2017-12-12T11:45:42.375Z,805.25
2017-12-12T11:46:42.381Z,805.29
2017-12-12T11:47:42.392Z,805.26
2017-12-12T11:48:42.394Z,805.27
2017-12-12T11:49:42.399Z,805.22
2017-12-12T11:50:42.405Z,805.22
2017-12-12T11:51:42.403Z,805.21
2017-12-12T11:52:42.458Z,805.24
2017-12-12T11:53:42.412Z,805.25
2017-12-12T11:54:42.416Z,805.23
2017-12-12T11:55:42.429Z,805.19
2017-12-12T11:56:42.430Z,805.17
2017-12-12T11:57:42.440Z,805.23
2017-12-12T11:58:42.440Z,805.28
2017-12-12T11:59:42.444Z,805.31
2017-12-12T12:00:42.443Z,805.31
2017-12-12T12:01:42.446Z,805.35
2017-12-12T12:02:42.451Z,805.31
2017-12-12T12:03:42.454Z,805.35
2017-12-12T12:04:42.464Z,805.39
2017-12-12T12:05:42.467Z,805.36
2017-12-12T12:06:42.476Z,805.41
2017-12-12T12:07:42.470Z,805.43
2017-12-12T12:08:42.480Z,805.42
2017-12-12T12:09:42.487Z,805.46
2017-12-12T12:10:42.495Z,805.46
2017-12-12T12:11:42.490Z,805.47
2017-12-12T12:12:42.495Z,805.46
2017-12-12T12:13:42.504Z,805.44
2017-12-12T12:14:42.508Z,805.48
2017-12-12T12:15:42.513Z,805.51
2017-12-12T12:16:42.513Z,805.50
2017-12-12T12:17:42.518Z,805.52
2017-12-12T12:18:42.528Z,805.51
2017-12-12T12:19:42.525Z,805.50
2017-12-12T12:20:42.535Z,805.49
2017-12-12T12:21:42.540Z,805.52
2017-12-12T12:22:42.543Z,805.55
2017-12-12T12:23:42.551Z,805.59
2017-12-12T12:24:42.557Z,805.64
2017-12-12T12:25:42.560Z,805.64
2017-12-12T12:26:42.562Z,805.68
2017-12-12T12:27:42.569Z,805.66
2017-12-12T12:28:42.574Z,805.69